WEATHER DATA

TODAY
Time Temp. Dewp. Hum. Bar.
00:02 16.8 10.9 68 1023.1
00:23 16.6 10.7 68 1023
00:32 16.4 10.5 68 1023
00:42 16.3 10.4 68 1022.9
00:53 16.1 10.2 68 1023
01:03 16 10.1 68 1022.9
01:13 15.8 9.9 68 1022.9
01:23 15.7 9.8 68 1022.8
01:33 15.6 9.7 68 1022.8
01:43 15.5 9.6 68 1022.8
01:53 15.4 9.5 68 1022.7
02:04 15.3 9.4 68 1022.7
02:13 15.2 9.3 68 1022.7
02:23 15 9.1 68 1022.8
02:34 14.9 9.1 68 1022.8
02:44 14.7 8.9 68 1022.8
02:54 14.6 8.8 68 1022.8
03:03 14.4 8.6 68 1022.7
03:14 14.3 8.5 68 1022.6
03:24 14.1 8.3 68 1022.7
03:34 14 8.2 68 1022.6
03:45 13.8 8 68 1022.6
03:54 13.7 7.9 68 1022.6
04:04 13.6 7.8 68 1022.6
04:14 13.4 7.6 68 1022.5
04:25 13.3 7.5 68 1022.4
04:35 13.1 7.3 68 1022.3
04:44 13 7.2 68 1022.2
04:55 12.8 7 68 1022.1
05:05 12.7 7.2 69 1022.1
05:15 12.6 7.1 69 1022.1
05:25 12.5 7 69 1022
05:35 12.4 6.9 69 1022
05:45 12.3 6.8 69 1021.9
05:55 12.3 6.8 69 1021.8
06:05 12.2 6.7 69 1021.8
06:14 12.2 6.7 69 1021.9
06:25 12.2 6.9 70 1021.9
06:35 12.3 7 70 1021.9
06:46 12.4 7.1 70 1021.9
06:56 12.4 7.1 70 1021.9
07:05 12.5 7.2 70 1021.9
07:16 12.7 7.6 71 1022
07:26 12.8 7.7 71 1022
07:36 13.1 8 71 1022.1
07:46 13.3 8.2 71 1022
07:56 13.5 8.6 72 1022
08:06 13.8 8.8 72 1022
08:16 14.1 9.1 72 1022
08:26 14.3 9.3 72 1022
08:37 14.6 9.6 72 1022.1
08:46 14.9 9.9 72 1022.1
08:56 15.3 10.3 72 1022.1
09:07 15.6 10.6 72 1022
09:17 16 11 72 1021.9
09:27 16.4 11.3 72 1021.7
09:37 16.8 11.7 72 1021.7
09:47 17.2 12.1 72 1021.6
09:57 17.6 12.5 72 1021.6
10:07 18 12.9 72 1021.6
10:18 18.4 13.3 72 1021.4
10:27 18.8 13.7 72 1021.3
10:37 19.2 14 72 1021.2
10:47 19.7 14.5 72 1021.1
10:58 20 14.8 72 1021
11:08 20.5 15.3 72 1021
11:17 20.9 15.7 72 1020.9
11:28 21.2 16 72 1020.9
11:38 21.7 16.4 72 1020.8
11:48 22.1 16.8 72 1020.7
11:58 22.5 17.2 72 1020.6
12:08 22.8 17.5 72 1020.5
12:18 23.2 17.9 72 1020.4
12:28 23.6 18.3 72 1020.4
12:39 23.9 18.5 72 1020.3
12:49 24.3 18.9 72 1020.2
12:58 24.6 19.2 72 1020
13:08 24.9 19.5 72 1019.9
13:19 25.2 19.8 72 1019.8
13:29 25.1 19.5 71 1019.8
13:38 25.1 19.5 71 1019.6
13:49 25.3 19.7 71 1019.3
13:59 25.5 19.9 71 1019.2
14:09 26 20.3 71 1019.1
14:19 26.4 20.7 71 1019
14:30 26.8 21.1 71 1018.9
14:39 27 21.3 71 1018.8
14:49 27.1 21.4 71 1018.6
15:00 27.4 21.7 71 1018.6
15:10 27.4 21.7 71 1018.4
15:19 27.6 21.6 70 1018.4
15:29 27.8 21.8 70 1018.3
15:40 28 22 70 1018
15:50 28.1 22.1 70 1018
16:00 28.4 22.4 70 1017.8
16:10 28.6 22.6 70 1017.8
16:20 28.6 22.6 70 1017.6
16:30 28.8 22.8 70 1017.5
16:40 29 23 70 1017.5
16:51 29.1 23.1 70 1017.3
17:00 29.3 23 69 1017.3
17:10 29.7 23.4 69 1017.1
17:21 29.9 23.6 69 1017
17:31 30.1 23.8 69 1017
17:41 30.6 24.3 69 1016.8
17:50 31.1 24.7 69 1016.7
18:01 31.4 25 69 1016.7
18:11 31.6 25.2 69 1016.5
18:21 32.5 26.1 69 1016.5
18:31 35 28.5 69 1016.4
18:41 37 30.4 69 1016.3
18:51 38.3 31.6 69 1016.2
19:01 38 31.3 69 1016.2
19:12 35.4 28.6 68 1016.2
19:22 33.5 26.8 68 1016.1
19:31 32.2 25.3 67 1016.1
19:42 30.9 24.1 67 1016

DAY STATISTIC

2020-07-13
TEMPERATURE
AVERAGE
20.6
HIGH
38.3
18:51
LOW
12.2
06:05
PRESSURE
AVERAGE
1020.5
HIGH
1023.1
00:02
LOW
1016.0
19:42
DEWPOINT
AVERAGE
14.9
HIGH
31.6
18:51
LOW
6.7
06:05
HUMIDITY
AVERAGE
70
HIGH
72
07:56
LOW
67
19:31
TEMPERATURE (°C)
LOW
12.2
HIGH
38.3
AVERAGE
20.6
PRESSURE (hpa)
LOW
1016.0
HIGH
1023.1
AVERAGE
1020.5
DEVICE